Time;durP1;ratioP1;P1;durP2;ratioP2;P2;SDS_P1;SDS_P2;PMS_P1;PMS_P2;Temp;Humidity;BMP_temperature;BMP_pressure;BME280_temperature;BME280_humidity;BME280_pressure;Samples;Min_cycle;Max_cycle;Signal;HPM_P1;HPM_P2
2021/12/10 00:00:38;;;;;;;38.58;4.70;;;;;;;6.64;100.00;98591.50;5072907;28;20024;-79
2021/12/10 00:03:06;;;;;;;42.05;5.45;;;;;;;6.61;100.00;98589.38;5095407;28;20038;-79
2021/12/10 00:05:40;;;;;;;38.03;5.10;;;;;;;6.62;100.00;98590.19;5072050;28;20077;-78
2021/12/10 00:08:05;;;;;;;37.78;5.28;;;;;;;6.64;100.00;98594.25;5070011;28;20070;-79
2021/12/10 00:10:34;;;;;;;32.85;4.40;;;;;;;6.62;100.00;98590.19;5084389;28;20504;-78
2021/12/10 00:12:59;;;;;;;35.03;5.88;;;;;;;6.62;100.00;98573.63;5073763;28;20032;-78
2021/12/10 00:15:27;;;;;;;35.60;6.07;;;;;;;6.62;100.00;98576.38;5077020;28;20028;-79
2021/12/10 00:17:53;;;;;;;40.30;5.47;;;;;;;6.58;100.00;98570.69;5071229;28;20054;-78
2021/12/10 00:20:19;;;;;;;39.63;4.97;;;;;;;6.57;100.00;98584.78;5078724;28;20480;-80
2021/12/10 00:22:54;;;;;;;33.90;4.68;;;;;;;6.55;100.00;98589.81;5092190;28;20561;-79
2021/12/10 00:25:22;;;;;;;46.03;5.18;;;;;;;6.48;100.00;98582.78;5070627;28;20064;-79
2021/12/10 00:27:56;;;;;;;35.97;5.10;;;;;;;6.45;100.00;98580.66;5061363;28;20052;-80
2021/12/10 00:30:28;;;;;;;36.78;5.30;;;;;;;6.42;100.00;98583.22;5043435;28;20054;-79
2021/12/10 00:33:08;;;;;;;39.83;4.93;;;;;;;6.40;100.00;98574.44;5063620;28;20024;-79
2021/12/10 00:35:34;;;;;;;46.22;5.93;;;;;;;6.35;100.00;98583.69;5072252;28;20035;-79
2021/12/10 00:37:59;;;;;;;36.50;5.13;;;;;;;6.31;100.00;98574.41;5087033;28;20024;-79
2021/12/10 00:40:25;;;;;;;40.55;5.28;;;;;;;6.28;100.00;98575.03;5099596;28;20032;-80
2021/12/10 00:42:51;;;;;;;40.65;4.50;;;;;;;6.27;100.00;98595.47;5048800;28;20031;-78
2021/12/10 00:45:17;;;;;;;38.75;4.68;;;;;;;6.25;100.00;98593.00;5053600;28;20103;-79
2021/12/10 00:47:42;;;;;;;45.72;5.20;;;;;;;6.25;100.00;98603.22;5071204;28;20039;-79
2021/12/10 00:50:15;;;;;;;32.05;4.47;;;;;;;6.24;100.00;98582.28;5098431;28;20036;-79
2021/12/10 00:52:42;;;;;;;31.35;3.15;;;;;;;6.25;100.00;98603.22;5055204;28;20040;-79
2021/12/10 00:55:08;;;;;;;32.30;4.10;;;;;;;6.23;100.00;98602.72;5076392;28;20029;-79
2021/12/10 00:57:34;;;;;;;35.13;4.22;;;;;;;6.21;100.00;98607.72;5103311;28;20104;-79
2021/12/10 00:59:59;;;;;;;33.10;4.45;;;;;;;6.22;100.00;98603.84;5047214;28;20032;-78
2021/12/10 01:02:25;;;;;;;28.33;3.83;;;;;;;6.21;100.00;98618.75;5081079;28;20039;-79
2021/12/10 01:04:54;;;;;;;35.75;4.97;;;;;;;6.18;100.00;98616.59;5078517;28;20028;-79
2021/12/10 01:07:21;;;;;;;40.50;4.65;;;;;;;6.17;100.00;98617.75;5094778;28;20030;-79
2021/12/10 01:09:48;;;;;;;47.78;4.55;;;;;;;6.16;100.00;98629.91;5106562;28;20036;-79
2021/12/10 01:12:19;;;;;;;28.95;3.78;;;;;;;6.13;100.00;98634.09;5105269;28;20035;-79
2021/12/10 01:15:05;;;;;;;35.78;3.90;;;;;;;6.13;100.00;98597.44;5067238;28;20524;-78
2021/12/10 01:26:12;;;;;;;32.58;4.13;;;;;;;6.03;100.00;98606.75;5094909;28;20028;-80
2021/12/10 01:28:40;;;;;;;31.00;3.63;;;;;;;6.01;100.00;98620.84;5086167;28;20602;-79
2021/12/10 01:31:06;;;;;;;24.55;3.10;;;;;;;5.98;100.00;98624.22;5068314;28;20389;-79
2021/12/10 01:33:32;;;;;;;22.52;3.20;;;;;;;5.94;100.00;98612.19;5099723;28;20027;-79
2021/12/10 01:35:59;;;;;;;23.02;3.33;;;;;;;5.90;100.00;98624.91;5079713;28;20047;-78
2021/12/10 01:38:25;;;;;;;19.40;3.22;;;;;;;5.87;100.00;98616.47;5099322;28;20035;-79
2021/12/10 01:40:55;;;;;;;21.52;2.83;;;;;;;5.82;100.00;98614.63;5057939;28;20032;-79
2021/12/10 01:43:23;;;;;;;30.33;3.40;;;;;;;5.79;100.00;98632.59;5085181;28;20028;-78
2021/12/10 01:46:07;;;;;;;21.20;2.85;;;;;;;5.70;100.00;98625.34;5070466;28;20034;-79
2021/12/10 01:48:35;;;;;;;23.27;2.92;;;;;;;5.65;100.00;98628.22;5078916;28;20032;-79
2021/12/10 01:51:01;;;;;;;22.80;2.45;;;;;;;5.57;100.00;98638.84;5045109;28;20047;-79
2021/12/10 01:53:28;;;;;;;24.17;2.63;;;;;;;5.57;100.00;98638.84;5101796;28;20044;-78
2021/12/10 01:55:56;;;;;;;29.20;3.83;;;;;;;5.54;100.00;98655.97;5102014;28;20032;-79
2021/12/10 01:58:23;;;;;;;28.42;3.13;;;;;;;5.49;100.00;98652.47;5076676;28;20032;-78
2021/12/10 02:01:09;;;;;;;21.40;3.00;;;;;;;5.50;100.00;98665.97;5091423;28;20040;-79
2021/12/10 02:03:35;;;;;;;31.08;3.40;;;;;;;5.48;100.00;98668.19;5063902;28;20016;-78
2021/12/10 02:06:00;;;;;;;23.23;3.38;;;;;;;5.49;100.00;98691.03;5068284;28;20160;-78
2021/12/10 02:08:26;;;;;;;20.38;3.20;;;;;;;5.49;100.00;98704.81;5078816;28;20385;-78
2021/12/10 02:10:51;;;;;;;24.23;3.35;;;;;;;5.48;100.00;98712.25;5065049;28;20036;-79
2021/12/10 02:13:17;;;;;;;22.48;2.90;;;;;;;5.51;100.00;98695.13;5085766;28;20040;-79
2021/12/10 02:15:42;;;;;;;29.55;3.65;;;;;;;5.52;100.00;98691.25;5085290;28;20024;-78
2021/12/10 02:18:09;;;;;;;19.17;2.80;;;;;;;5.52;100.00;98701.47;5107728;28;20032;-78
2021/12/10 02:21:02;;;;;;;23.85;3.83;;;;;;;5.55;100.00;98720.13;5071944;28;20081;-78
2021/12/10 02:23:29;;;;;;;28.80;3.88;;;;;;;5.53;100.00;98717.66;5095607;28;20036;-79
2021/12/10 02:25:55;;;;;;;20.30;2.63;;;;;;;5.54;100.00;98722.06;5103887;28;20633;-79
2021/12/10 02:28:21;;;;;;;26.77;2.38;;;;;;;5.54;100.00;98710.22;5099130;28;20115;-78
2021/12/10 02:30:47;;;;;;;13.52;2.30;;;;;;;5.51;100.00;98727.34;5077513;28;20039;-78
2021/12/10 02:33:13;;;;;;;17.20;2.40;;;;;;;5.53;100.00;98723.16;5071190;28;20420;-78
2021/12/10 02:35:39;;;;;;;17.92;2.67;;;;;;;5.52;100.00;98713.28;5105687;28;20028;-79
2021/12/10 02:38:04;;;;;;;19.38;2.45;;;;;;;5.51;100.00;98705.31;5068203;28;20345;-78
2021/12/10 02:40:30;;;;;;;14.00;1.80;;;;;;;5.48;100.00;98706.75;5086401;28;20125;-79
2021/12/10 02:42:56;;;;;;;18.02;2.58;;;;;;;5.45;100.00;98734.88;5091895;28;20106;-78
2021/12/10 02:45:23;;;;;;;16.73;2.15;;;;;;;5.41;100.00;98755.91;5066932;28;20067;-78
2021/12/10 02:47:49;;;;;;;13.65;2.03;;;;;;;5.39;100.00;98730.59;5103617;28;20035;-79
2021/12/10 02:50:19;;;;;;;18.17;3.13;;;;;;;5.37;100.00;98719.88;5065959;28;20048;-78
2021/12/10 02:52:44;;;;;;;14.07;1.83;;;;;;;5.33;100.00;98718.88;5086199;28;20464;-78
2021/12/10 02:55:10;;;;;;;14.13;1.77;;;;;;;5.32;100.00;98719.16;5105082;28;20094;-78
2021/12/10 02:57:37;;;;;;;15.45;1.58;;;;;;;5.28;100.00;98742.91;5078652;28;20031;-78
2021/12/10 03:00:11;;;;;;;13.30;1.98;;;;;;;5.26;100.00;98736.88;5092905;28;20040;-79
2021/12/10 03:02:37;;;;;;;16.27;2.15;;;;;;;5.27;100.00;98744.03;5075719;28;20556;-79
2021/12/10 03:05:03;;;;;;;17.60;2.20;;;;;;;5.22;100.00;98752.38;5103962;28;20059;-78
2021/12/10 03:07:30;;;;;;;16.85;2.03;;;;;;;5.19;100.00;98748.28;5096162;28;20035;-78
2021/12/10 03:09:55;;;;;;;17.65;2.25;;;;;;;5.15;100.00;98756.34;5077098;28;20588;-78
2021/12/10 03:12:21;;;;;;;13.00;1.92;;;;;;;5.12;100.00;98754.16;5103739;28;20039;-79
2021/12/10 03:14:49;;;;;;;20.80;2.80;;;;;;;5.08;100.00;98750.41;5095707;28;20082;-79
2021/12/10 03:17:18;;;;;;;21.38;2.90;;;;;;;5.08;100.00;98761.41;5080776;28;20027;-78
2021/12/10 03:19:43;;;;;;;29.38;3.17;;;;;;;5.09;100.00;98759.47;5071700;28;20561;-78
2021/12/10 03:22:09;;;;;;;19.85;2.22;;;;;;;5.06;100.00;98760.06;5059249;28;20029;-78
2021/12/10 03:24:34;;;;;;;22.35;2.72;;;;;;;5.05;100.00;98764.75;5093091;28;20024;-79
2021/12/10 03:27:03;;;;;;;28.13;3.08;;;;;;;5.01;100.00;98763.72;5077786;28;20032;-79
2021/12/10 03:29:29;;;;;;;19.42;2.70;;;;;;;4.99;100.00;98768.72;5090506;28;20101;-78
2021/12/10 03:31:55;;;;;;;21.45;3.00;;;;;;;4.97;100.00;98770.94;5080346;28;20161;-78
2021/12/10 03:34:20;;;;;;;24.42;3.20;;;;;;;4.94;100.00;98768.78;5095695;28;20469;-79
2021/12/10 03:36:47;;;;;;;21.40;2.40;;;;;;;4.88;100.00;98764.50;5084176;28;20092;-78
2021/12/10 03:39:13;;;;;;;14.90;2.05;;;;;;;4.86;100.00;98767.53;5071245;28;20394;-79
2021/12/10 03:41:39;;;;;;;23.92;3.42;;;;;;;4.85;100.00;98773.34;5096166;28;20536;-78
2021/12/10 03:44:05;;;;;;;18.80;2.70;;;;;;;4.79;100.00;98777.28;5100155;28;20055;-78
2021/12/10 03:46:30;;;;;;;14.40;2.60;;;;;;;4.78;100.00;98775.66;5097978;28;20080;-79
2021/12/10 03:48:55;;;;;;;17.77;2.78;;;;;;;4.74;100.00;98777.38;5099981;28;20032;-79
2021/12/10 03:51:23;;;;;;;20.67;2.78;;;;;;;4.72;100.00;98785.09;5068055;28;20484;-79
2021/12/10 03:53:49;;;;;;;22.42;3.15;;;;;;;4.73;100.00;98784.78;5102988;28;20523;-79
2021/12/10 03:56:17;;;;;;;19.13;2.85;;;;;;;4.72;100.00;98780.41;5105883;28;20023;-78
2021/12/10 03:58:42;;;;;;;19.65;2.45;;;;;;;4.69;100.00;98787.31;5078870;28;20107;-79
2021/12/10 04:01:08;;;;;;;29.67;3.67;;;;;;;4.69;100.00;98817.56;5095587;28;20115;-79
2021/12/10 04:03:34;;;;;;;25.63;3.03;;;;;;;4.69;100.00;98825.81;5104322;28;20043;-78
2021/12/10 04:05:59;;;;;;;25.00;3.67;;;;;;;4.69;100.00;98828.56;5105273;28;20472;-78
2021/12/10 04:08:25;;;;;;;24.88;2.83;;;;;;;4.69;100.00;98817.56;5104755;28;20036;-78
2021/12/10 04:10:52;;;;;;;24.92;3.08;;;;;;;4.70;100.00;98830.19;5097352;28;20035;-79
2021/12/10 04:13:17;;;;;;;20.55;2.97;;;;;;;4.73;100.00;98814.22;5074271;28;20079;-78
2021/12/10 04:15:43;;;;;;;28.33;3.80;;;;;;;4.73;100.00;98847.22;5096401;28;20040;-78
2021/12/10 04:18:09;;;;;;;35.33;4.32;;;;;;;4.72;100.00;98884.09;5102242;28;20031;-78
2021/12/10 04:20:34;;;;;;;33.00;4.03;;;;;;;4.74;100.00;98901.13;5091901;28;20102;-78
2021/12/10 04:23:01;;;;;;;21.33;2.85;;;;;;;4.76;100.00;98898.88;5059011;28;20032;-79
2021/12/10 04:25:27;;;;;;;19.17;2.45;;;;;;;4.76;100.00;98876.88;5097859;28;20032;-79
2021/12/10 04:27:55;;;;;;;15.77;3.03;;;;;;;4.76;100.00;98874.94;5087109;28;20044;-79
2021/12/10 04:30:21;;;;;;;13.20;1.73;;;;;;;4.73;100.00;98875.53;5078092;28;20074;-79
2021/12/10 04:32:47;;;;;;;18.02;2.33;;;;;;;4.70;100.00;98871.44;5075003;28;20025;-79
2021/12/10 04:35:13;;;;;;;13.70;1.67;;;;;;;4.68;100.00;98865.44;5055762;28;20030;-79
2021/12/10 04:37:39;;;;;;;16.42;1.83;;;;;;;4.64;100.00;98869.88;5097681;28;20469;-79
2021/12/10 04:40:06;;;;;;;8.77;1.67;;;;;;;4.61;100.00;98855.91;5071331;28;20065;-79
2021/12/10 04:42:32;;;;;;;14.65;2.40;;;;;;;4.54;100.00;98859.03;5072578;28;20033;-79
2021/12/10 04:44:58;;;;;;;12.48;1.92;;;;;;;4.51;100.00;98880.78;5060109;28;20021;-79
2021/12/10 04:47:24;;;;;;;14.38;1.60;;;;;;;4.52;100.00;98898.94;5053824;28;20028;-79
2021/12/10 04:49:49;;;;;;;13.00;2.42;;;;;;;4.48;100.00;98905.00;5049120;28;20030;-79
2021/12/10 04:52:15;;;;;;;15.43;2.10;;;;;;;4.43;100.00;98885.81;5103811;28;20066;-79
2021/12/10 04:54:40;;;;;;;9.43;1.58;;;;;;;4.41;100.00;98863.31;5074457;28;20528;-79
2021/12/10 04:57:06;;;;;;;8.73;1.13;;;;;;;4.43;100.00;98873.97;5084967;28;20043;-78
2021/12/10 04:59:32;;;;;;;6.85;0.90;;;;;;;4.35;100.00;98874.66;5085274;28;20056;-79
2021/12/10 05:02:00;;;;;;;9.15;1.25;;;;;;;4.32;100.00;98889.81;5040028;28;20039;-79
2021/12/10 05:04:25;;;;;;;5.35;1.00;;;;;;;4.29;100.00;98897.78;5096907;28;20380;-79
2021/12/10 05:06:51;;;;;;;6.18;1.20;;;;;;;4.24;100.00;98910.50;5076838;28;20044;-79
2021/12/10 05:09:18;;;;;;;13.05;1.35;;;;;;;4.24;100.00;98902.25;5079513;28;20026;-78
2021/12/10 05:11:43;;;;;;;10.90;1.50;;;;;;;4.20;100.00;98886.63;5084112;28;20473;-79
2021/12/10 05:14:09;;;;;;;13.63;2.03;;;;;;;4.17;100.00;98882.53;5073052;28;20024;-79
2021/12/10 05:16:37;;;;;;;16.10;1.70;;;;;;;4.14;100.00;98896.84;5101040;28;20085;-78
2021/12/10 05:19:05;;;;;;;16.45;1.80;;;;;;;4.10;100.00;98895.81;5061361;28;20039;-79
2021/12/10 05:21:31;;;;;;;8.55;1.10;;;;;;;4.08;100.00;98891.72;5059718;28;20107;-79
2021/12/10 05:23:58;;;;;;;9.90;1.80;;;;;;;4.02;100.00;98894.50;5062136;28;20036;-79
2021/12/10 05:26:24;;;;;;;7.80;1.20;;;;;;;3.96;100.00;98898.41;5063659;28;20035;-79
2021/12/10 05:28:49;;;;;;;7.32;1.42;;;;;;;3.95;100.00;98901.44;5094326;28;20058;-79
2021/12/10 05:31:15;;;;;;;6.97;1.35;;;;;;;3.94;100.00;98913.56;5078369;28;20019;-78
2021/12/10 05:33:40;;;;;;;7.05;1.30;;;;;;;3.89;100.00;98910.84;5095885;28;20031;-78
2021/12/10 05:36:07;;;;;;;8.20;1.63;;;;;;;3.86;100.00;98922.41;5096551;28;20032;-79
2021/12/10 05:38:32;;;;;;;7.82;1.42;;;;;;;3.81;100.00;98924.09;5055766;28;20029;-78
2021/12/10 05:40:58;;;;;;;16.38;2.25;;;;;;;3.80;100.00;98935.38;5077213;28;20039;-79
2021/12/10 05:43:23;;;;;;;11.30;1.92;;;;;;;3.79;100.00;98947.47;5097416;28;20086;-79
2021/12/10 05:45:49;;;;;;;8.35;2.05;;;;;;;3.80;100.00;98951.84;5097151;28;20028;-78
2021/12/10 05:48:15;;;;;;;12.25;1.70;;;;;;;3.76;100.00;98970.00;5083976;28;20040;-79
2021/12/10 05:50:40;;;;;;;;;;;;;;;3.77;100.00;98983.44;5080509;28;20064;-78
2021/12/10 05:53:06;;;;;;;15.00;2.20;;;;;;;3.74;100.00;99021.66;5099182;28;19912;-79
2021/12/10 05:55:31;;;;;;;13.05;2.15;;;;;;;3.72;100.00;99051.31;5071683;28;20045;-78
2021/12/10 05:57:57;;;;;;;15.15;2.60;;;;;;;3.72;100.00;99040.31;5089361;28;20035;-79
2021/12/10 06:00:38;;;;;;;16.77;2.70;;;;;;;3.75;100.00;98991.16;5106930;28;20571;-78
2021/12/10 06:03:04;;;;;;;13.93;2.42;;;;;;;3.77;100.00;98983.44;5059763;28;20034;-78
2021/12/10 06:05:31;;;;;;;19.77;2.85;;;;;;;3.76;100.00;98991.97;5083098;28;20033;-78
2021/12/10 06:07:57;;;;;;;15.55;2.67;;;;;;;3.74;100.00;98981.28;5069243;28;20082;-78
2021/12/10 06:10:23;;;;;;;16.92;2.05;;;;;;;3.74;100.00;98984.03;5090007;28;20032;-78
2021/12/10 06:12:49;;;;;;;19.80;2.72;;;;;;;3.69;100.00;98992.28;5086160;28;20051;-78
2021/12/10 06:15:16;;;;;;;17.60;2.58;;;;;;;3.67;100.00;98997.25;5068620;28;20019;-78
2021/12/10 06:17:42;;;;;;;18.27;2.72;;;;;;;3.66;100.00;98992.88;5104096;28;20035;-78
2021/12/10 06:20:08;;;;;;;19.35;2.22;;;;;;;3.64;100.00;98995.06;5100164;28;20023;-78
2021/12/10 06:22:34;;;;;;;12.57;2.38;;;;;;;3.62;100.00;99013.75;5080718;28;20040;-78
2021/12/10 06:24:59;;;;;;;11.43;2.20;;;;;;;3.63;100.00;99012.66;5075626;28;20039;-78
2021/12/10 06:27:25;;;;;;;11.63;1.92;;;;;;;3.60;100.00;99021.47;5078652;28;20031;-78
2021/12/10 06:29:50;;;;;;;13.75;1.85;;;;;;;3.65;100.00;99026.09;5090654;28;20428;-78
2021/12/10 06:32:16;;;;;;;11.65;1.90;;;;;;;3.62;100.00;99019.22;5063525;28;20054;-78
2021/12/10 06:34:41;;;;;;;10.85;1.75;;;;;;;3.63;100.00;99018.16;5098145;28;20043;-78
2021/12/10 06:37:07;;;;;;;13.82;2.15;;;;;;;3.57;100.00;99017.38;5102325;28;20032;-78
2021/12/10 06:39:32;;;;;;;17.83;2.42;;;;;;;3.53;100.00;99026.44;5081339;28;20020;-78
2021/12/10 06:41:58;;;;;;;11.23;1.92;;;;;;;3.53;100.00;99031.94;5091852;28;20029;-78
2021/12/10 06:44:24;;;;;;;8.35;1.80;;;;;;;3.53;100.00;99034.69;5081477;28;20020;-78
2021/12/10 06:46:49;;;;;;;15.55;1.98;;;;;;;3.49;100.00;99037.19;5096911;28;20032;-78
2021/12/10 06:49:15;;;;;;;10.18;1.80;;;;;;;3.44;100.00;99033.63;5101458;28;20115;-78
2021/12/10 06:51:41;;;;;;;9.20;1.70;;;;;;;3.42;100.00;99044.06;5099698;28;20035;-78
2021/12/10 06:54:07;;;;;;;11.85;2.10;;;;;;;3.39;100.00;99036.41;5081202;28;20028;-78
2021/12/10 06:56:34;;;;;;;15.75;2.10;;;;;;;3.34;100.00;99040.00;5077672;28;20040;-78
2021/12/10 06:59:00;;;;;;;11.73;2.95;;;;;;;3.30;100.00;99042.47;5102760;28;20023;-78
2021/12/10 07:01:28;;;;;;;14.55;2.22;;;;;;;3.25;100.00;99049.91;5067589;28;20024;-78
2021/12/10 07:03:54;;;;;;;10.05;1.90;;;;;;;3.23;100.00;99061.19;5049224;28;20036;-78
2021/12/10 07:06:20;;;;;;;12.02;2.42;;;;;;;3.20;100.00;99072.69;5097253;28;20036;-78
2021/12/10 07:08:46;;;;;;;14.93;2.63;;;;;;;3.18;100.00;99083.16;5098317;28;20103;-78
2021/12/10 07:11:14;;;;;;;10.45;1.83;;;;;;;3.15;100.00;99097.44;5097575;28;20082;-78
2021/12/10 07:13:41;;;;;;;15.05;3.03;;;;;;;3.14;100.00;99120.47;5097596;28;20024;-78
2021/12/10 07:16:07;;;;;;;15.27;2.40;;;;;;;3.11;100.00;99130.06;5101474;28;20025;-78
2021/12/10 07:18:32;;;;;;;11.23;1.88;;;;;;;3.13;100.00;99135.28;5080870;28;20020;-78
2021/12/10 07:20:58;;;;;;;24.55;4.63;;;;;;;3.18;100.00;99154.50;5081020;28;20035;-78
2021/12/10 07:23:23;;;;;;;20.13;5.03;;;;;;;3.22;100.00;99158.31;5075126;28;20194;-78
2021/12/10 07:25:50;;;;;;;16.67;3.05;;;;;;;3.26;100.00;99186.84;5076006;28;20035;-79
2021/12/10 07:28:16;;;;;;;23.42;3.47;;;;;;;3.29;100.00;99189.03;5106198;28;20416;-78
2021/12/10 07:30:41;;;;;;;15.93;2.63;;;;;;;3.35;100.00;99162.41;5104702;28;20031;-78
2021/12/10 07:33:07;;;;;;;10.43;1.83;;;;;;;3.41;100.00;99117.34;5078061;28;20032;-78
2021/12/10 07:35:33;;;;;;;10.25;1.60;;;;;;;3.44;100.00;99143.44;5100557;28;20027;-78
2021/12/10 07:37:59;;;;;;;13.70;1.50;;;;;;;3.44;100.00;99154.41;5085470;28;20017;-78
2021/12/10 07:40:26;;;;;;;8.88;1.38;;;;;;;3.45;100.00;99153.28;5087864;28;20484;-78
2021/12/10 07:42:51;;;;;;;11.95;1.13;;;;;;;3.48;100.00;99149.97;5073948;28;20032;-78
2021/12/10 07:45:17;;;;;;;7.47;1.00;;;;;;;3.48;100.00;99153.56;5098612;28;20032;-78
2021/12/10 07:47:42;;;;;;;3.83;1.00;;;;;;;3.52;100.00;99162.88;5097956;28;20070;-77
2021/12/10 07:50:15;;;;;;;8.18;1.48;;;;;;;3.53;100.00;99147.22;5077146;28;20032;-77
2021/12/10 07:52:40;;;;;;;10.63;1.77;;;;;;;3.55;100.00;99150.50;5054020;28;20043;-77
2021/12/10 07:55:09;;;;;;;8.85;1.50;;;;;;;3.57;100.00;99149.13;5050981;28;20028;-77
2021/12/10 07:57:34;;;;;;;7.63;1.40;;;;;;;3.60;100.00;99141.44;5072823;28;20469;-77
2021/12/10 08:00:00;;;;;;;9.00;1.58;;;;;;;3.62;100.00;99150.19;5043455;28;20039;-77
2021/12/10 08:02:25;;;;;;;8.93;1.80;;;;;;;3.61;100.00;99167.78;5076608;28;20086;-76
2021/12/10 08:04:51;;;;;;;5.65;1.40;;;;;;;3.64;100.00;99156.25;5070133;28;20039;-77
2021/12/10 08:07:17;;;;;;;4.22;1.42;;;;;;;3.63;100.00;99169.16;5070499;28;20032;-77
2021/12/10 08:09:42;;;;;;;12.13;2.08;;;;;;;3.65;100.00;99171.59;5074904;28;20027;-77
2021/12/10 08:12:08;;;;;;;7.88;1.63;;;;;;;3.65;100.00;99179.84;5058184;28;20024;-77
2021/12/10 08:14:33;;;;;;;6.22;1.85;;;;;;;3.66;100.00;99196.03;5079444;28;20536;-77
2021/12/10 08:16:59;;;;;;;7.30;1.60;;;;;;;3.66;100.00;99190.56;5061920;28;20035;-76
2021/12/10 08:19:24;;;;;;;11.25;1.58;;;;;;;3.69;100.00;99205.66;5076705;28;20023;-77
2021/12/10 08:21:50;;;;;;;6.60;1.45;;;;;;;3.68;100.00;99218.56;5062240;28;20027;-77
2021/12/10 08:24:15;;;;;;;12.07;2.35;;;;;;;3.73;100.00;99224.03;5079108;28;20543;-77
2021/12/10 08:26:41;;;;;;;13.65;2.63;;;;;;;3.73;100.00;99221.28;5056454;28;20092;-77
2021/12/10 08:29:07;;;;;;;18.30;3.55;;;;;;;3.75;100.00;99227.31;5097891;28;20044;-77
2021/12/10 08:31:33;;;;;;;12.88;3.45;;;;;;;3.78;100.00;99234.97;5075824;28;20032;-76
2021/12/10 08:33:59;;;;;;;20.35;3.45;;;;;;;3.77;100.00;99236.09;5074646;28;20032;-78
2021/12/10 08:36:24;;;;;;;20.30;3.15;;;;;;;3.79;100.00;99250.38;5063932;28;20036;-77
2021/12/10 08:38:50;;;;;;;14.48;2.67;;;;;;;3.82;100.00;99254.50;5068543;28;20055;-77
2021/12/10 08:41:23;;;;;;;14.63;2.70;;;;;;;3.86;100.00;99249.25;5098576;28;20028;-77
2021/12/10 08:43:48;;;;;;;10.90;2.55;;;;;;;3.86;100.00;99260.22;5077666;28;20027;-77
2021/12/10 08:46:14;;;;;;;19.23;3.33;;;;;;;3.87;100.00;99248.13;5099249;28;20495;-77
2021/12/10 08:48:41;;;;;;;16.25;2.92;;;;;;;3.89;100.00;99249.50;5075366;28;20036;-73
2021/12/10 08:51:11;;;;;;;13.93;2.42;;;;;;;3.89;100.00;99254.19;5075155;28;20082;-73
2021/12/10 08:53:37;;;;;;;10.75;2.13;;;;;;;3.91;100.00;99257.47;5070566;28;20028;-74
2021/12/10 08:56:02;;;;;;;10.77;2.03;;;;;;;3.91;100.00;99252.78;5072305;28;20032;-73
2021/12/10 08:58:28;;;;;;;8.82;2.15;;;;;;;3.94;100.00;99265.16;5101138;28;20064;-73
2021/12/10 09:01:10;;;;;;;18.00;2.38;;;;;;;3.91;100.00;99276.69;5090781;28;20032;-73
2021/12/10 09:03:35;;;;;;;12.75;2.30;;;;;;;3.94;100.00;99292.63;5065765;28;20178;-73
2021/12/10 09:06:02;;;;;;;10.52;1.95;;;;;;;3.93;100.00;99282.75;5081465;28;20024;-73
2021/12/10 09:08:27;;;;;;;13.52;2.40;;;;;;;3.96;100.00;99276.69;5085764;28;20062;-73
2021/12/10 09:10:52;;;;;;;10.35;1.77;;;;;;;3.97;100.00;99283.81;5048461;28;20484;-73
2021/12/10 09:13:20;;;;;;;11.55;2.40;;;;;;;3.96;100.00;99282.19;5035076;28;20027;-73
2021/12/10 09:15:52;;;;;;;12.60;2.03;;;;;;;3.95;100.00;99275.03;5044170;28;20024;-73
2021/12/10 09:18:18;;;;;;;12.10;2.30;;;;;;;3.98;100.00;99282.69;5040187;28;20020;-73
2021/12/10 09:20:45;;;;;;;8.60;1.55;;;;;;;3.95;100.00;99272.28;5031576;28;20507;-73
2021/12/10 09:23:13;;;;;;;13.05;2.58;;;;;;;3.92;100.00;99276.41;5078930;28;20041;-73
2021/12/10 09:25:39;;;;;;;9.20;1.88;;;;;;;3.93;100.00;99274.50;5054365;28;20058;-73
2021/12/10 09:28:05;;;;;;;8.75;1.60;;;;;;;3.95;100.00;99277.78;5091516;28;20047;-73
2021/12/10 09:30:31;;;;;;;11.60;1.80;;;;;;;3.98;100.00;99280.81;5068599;28;20032;-73
2021/12/10 09:32:57;;;;;;;7.07;1.58;;;;;;;4.03;100.00;99274.44;5069839;28;20029;-73
2021/12/10 09:35:23;;;;;;;7.50;1.80;;;;;;;4.10;100.00;99287.91;5064674;28;20028;-73
2021/12/10 09:37:49;;;;;;;12.23;2.10;;;;;;;4.16;100.00;99287.59;5069665;28;20028;-73
2021/12/10 09:40:17;;;;;;;9.70;2.10;;;;;;;4.24;100.00;99298.00;5063559;28;20055;-73
2021/12/10 09:42:44;;;;;;;10.40;1.73;;;;;;;4.32;100.00;99295.75;5062236;28;20048;-73
2021/12/10 09:45:11;;;;;;;13.25;2.28;;;;;;;4.39;100.00;99302.59;5060169;28;20094;-78
2021/12/10 09:47:37;;;;;;;11.85;2.60;;;;;;;4.50;100.00;99299.78;5060965;28;20388;-78
2021/12/10 09:50:03;;;;;;;12.77;2.38;;;;;;;4.57;100.00;99301.13;5106278;28;20024;-78
2021/12/10 09:52:29;;;;;;;7.03;1.70;;;;;;;4.64;100.00;99307.13;5058999;28;20020;-78
2021/12/10 09:54:54;;;;;;;11.07;1.50;;;;;;;4.69;100.00;99318.09;5081707;28;20051;-78
2021/12/10 09:57:25;;;;;;;9.32;1.80;;;;;;;4.75;100.00;99318.88;5100947;28;20029;-78
2021/12/10 09:59:51;;;;;;;8.93;1.92;;;;;;;4.82;100.00;99333.16;5101572;28;20168;-78
2021/12/10 10:02:17;;;;;;;12.75;1.80;;;;;;;4.83;100.00;99334.78;5060448;28;20036;-78
2021/12/10 10:04:48;;;;;;;10.90;1.52;;;;;;;4.89;100.00;99333.63;5078348;28;20074;-78
2021/12/10 10:07:14;;;;;;;10.45;1.27;;;;;;;4.95;100.00;99337.19;5107320;28;20096;-78
2021/12/10 10:09:41;;;;;;;9.40;1.40;;;;;;;5.01;100.00;99369.06;5101162;28;20032;-78
2021/12/10 10:12:10;;;;;;;12.43;2.42;;;;;;;5.08;100.00;99375.06;5104583;28;20039;-78
2021/12/10 10:14:37;;;;;;;9.52;1.90;;;;;;;5.10;100.00;99350.84;5079008;28;20523;-78
2021/12/10 10:17:03;;;;;;;11.23;1.52;;;;;;;5.06;100.00;99355.25;5072136;28;20090;-78
2021/12/10 10:19:28;;;;;;;10.88;2.25;;;;;;;5.08;100.00;99379.75;5053517;28;20020;-78
2021/12/10 10:21:55;;;;;;;12.05;1.58;;;;;;;5.03;100.00;99380.59;5063758;28;20051;-78
2021/12/10 10:24:22;;;;;;;7.97;1.20;;;;;;;5.05;100.00;99397.66;5093350;28;20032;-78
2021/12/10 10:26:54;;;;;;;13.13;2.00;;;;;;;5.02;100.00;99403.75;5109808;28;20036;-79
2021/12/10 10:29:20;;;;;;;12.70;2.10;;;;;;;4.98;100.00;99399.91;5095095;28;20127;-78
2021/12/10 10:31:50;;;;;;;16.58;2.25;;;;;;;4.95;100.00;99403.22;5071669;28;20031;-78
2021/12/10 10:34:15;;;;;;;11.20;2.13;;;;;;;4.92;100.00;99414.78;5074947;28;20027;-77
2021/12/10 10:36:41;;;;;;;20.23;2.50;;;;;;;4.88;100.00;99435.75;5091878;28;20036;-77
2021/12/10 10:39:14;;;;;;;18.50;3.55;;;;;;;4.83;100.00;99428.31;5073396;28;20020;-77
2021/12/10 10:41:39;;;;;;;18.33;2.65;;;;;;;4.78;100.00;99455.03;5101640;28;20111;-77
2021/12/10 10:44:05;;;;;;;20.23;2.95;;;;;;;4.75;100.00;99437.16;5062926;28;20037;-77
2021/12/10 10:46:31;;;;;;;10.90;2.05;;;;;;;4.68;100.00;99455.88;5080374;28;20027;-77
2021/12/10 10:48:56;;;;;;;17.35;2.53;;;;;;;4.65;100.00;99435.28;5070719;28;20033;-78
2021/12/10 10:51:31;;;;;;;14.30;1.98;;;;;;;4.66;100.00;99445.19;5091262;28;20111;-77
2021/12/10 10:53:58;;;;;;;12.88;2.22;;;;;;;4.64;100.00;99444.63;5104659;28;20028;-78
2021/12/10 10:56:30;;;;;;;16.95;2.63;;;;;;;4.67;100.00;99446.00;5100407;28;20106;-77
2021/12/10 10:59:00;;;;;;;14.88;2.30;;;;;;;4.68;100.00;99453.13;5082028;28;20078;-78
2021/12/10 11:01:40;;;;;;;16.58;2.67;;;;;;;4.68;100.00;99464.97;5064171;28;20029;-78
2021/12/10 11:04:15;;;;;;;18.63;2.58;;;;;;;4.70;100.00;99482.00;5106125;28;20035;-78
2021/12/10 11:06:46;;;;;;;25.67;3.42;;;;;;;4.69;100.00;99494.13;5091997;28;20036;-78
2021/12/10 11:09:16;;;;;;;20.85;2.72;;;;;;;4.65;100.00;99482.03;5081768;28;20392;-78
2021/12/10 11:11:45;;;;;;;15.75;2.55;;;;;;;4.64;100.00;99474.06;5078221;28;20510;-78
2021/12/10 11:14:21;;;;;;;11.88;1.90;;;;;;;4.62;100.00;99466.06;5100102;28;20036;-78
2021/12/10 11:16:48;;;;;;;17.02;3.20;;;;;;;4.59;100.00;99477.63;5096217;28;20032;-78
2021/12/10 11:19:31;;;;;;;12.75;2.13;;;;;;;4.61;100.00;99489.19;5102893;28;20024;-77
2021/12/10 11:22:11;;;;;;;97.07;9.27;;;;;;;4.62;100.00;99501.00;5088206;28;20031;-77
2021/12/10 11:24:46;;;;;;;382.33;35.13;;;;;;;4.65;100.00;99501.28;5098557;28;20119;-79
2021/12/10 11:27:32;;;;;;;330.55;31.02;;;;;;;4.67;100.00;99490.81;5098756;28;20037;-79
2021/12/10 11:30:04;;;;;;;208.30;21.60;;;;;;;4.70;100.00;99501.25;5093597;28;20146;-78
2021/12/10 11:32:39;;;;;;;280.30;28.05;;;;;;;4.72;100.00;99502.91;5089418;28;20041;-77
2021/12/10 11:35:04;;;;;;;217.77;18.42;;;;;;;4.74;100.00;99500.72;5102993;28;20065;-73